Lockbourne, Ohio
Current Conditions -  °F | °C
As of 2:55 PM on Saturday 25 Oct 2014 (Local Time) from KLCK Reporting Station
Scattered Clouds Scattered Clouds  
Wind Chill: 69°   Ceiling: Unl
Heat Index: 69°   Visibility: 10mi
Dew Point: 56°   Wind: 15mph
Humidity: 62%   Direction: 250°WSW
Pressure: 29.86"   Gusts: 23mph
Location:  39.81°N, 82.97°W
Report Text: KLCK 251855Z AUTO 25013G20KT 10SM SCT029 21/13 A2986 RMK AO2 T02060131
Loading
Personal Weather Stations






























Interactive Weather Map
Tropical Storm Tracking
New forecast layout! Learn more

10-Day Weather Forecast

Advertisements
Track Severe Weather on mobile